Relevés horaires Matro (Suisse)


Relevés horaires à Matro - Lundi 09 Sept. 2019
Heure UTC1 Température [°C] Vent [km/h] Hum. [%] Pres.4 [hPa] Visi. [Km] Nébu. [octa] Préc.5 [mm] Cond.
2m. Res. Ros. Dir.2 Vit. Moy. Raf.3
23:00 2.8 -2.4 -2.2 SSE 25.9 -- 35.2 70 850(0.3/3h) -- -- -- --
22:00 3.2 -2.3 -3.8 SE 29.6 -- 31.5 60 850(0.5/3h) -- -- -- --
21:00 3.2 -1.7 -2.7 SSE 24.1 -- 40.7 65 850(1.2/3h) -- -- -- --
20:00 3.3 -2.1 -2.0 SSE 29.6 -- 37.0 68 850(1.2/3h) -- -- -- --
19:00 3.2 -2.3 -1.9 SSE 29.6 -- 40.7 69 850(1.1/3h) -- -- -- --
18:00 3.8 -1.3 -2.7 SSE 27.8 -- 40.7 62 850(0.6/3h) -- -- -- --
17:00 4.0 -0.9 -1.6 SSE 25.9 -- 40.7 67 850(0.3/3h) -- -- -- --
16:00 5.0 0.1 -1.6 S 29.6 -- 40.7 62 850(0.0/3h) -- -- -- --
15:00 5.4 1.5 -2.3 SSE 20.4 -- 35.2 58 850(-0.2/3h) -- -- -- --
14:00 5.5 1.7 -2.7 S 20.4 -- 31.5 55 850(-0.2/3h) -- -- -- --
13:00 5.2 2.3 -2.5 S 13.0 -- 27.8 57 850(-0.2/3h) -- -- -- --
12:00 6.7 4.8 -1.1 S 9.3 -- 50.0 57 850(0.1/3h) -- -- -- --
11:00 4.6 1.9 -2.0 S 11.1 -- 27.8 62 850(1.0/3h) -- -- -- --
10:00 3.7 1.8 -2.5 NO 7.4 -- 22.2 64 850(1.1/3h) -- -- -- --
09:00 2.5 -1 -4.0 NNO 13.0 -- 50.0 62 850(1.2/3h) -- -- -- --
08:00 1.9 -2.9 -5.1 NNO 20.4 -- 44.4 60 850(0.6/3h) -- -- -- --
07:00 1.2 -4.7 -5.5 NNO 27.8 -- 50.0 61 850(0.8/3h) -- -- -- --
06:00 1.0 -5.5 -5.5 NNO 33.3 -- 53.7 62 850(0.6/3h) -- -- -- --
05:00 0.8 -5.4 -5.2 NO 29.6 -- 44.4 64 850(0.3/3h) -- -- -- --
04:00 0.9 -5.1 -4.6 NNO 27.8 -- 46.3 67 850(-0.1/3h) -- -- -- --
03:00 1.2 -5.1 -4.5 NNO 31.5 -- 53.7 66 850(-0.3/3h) -- -- -- --
02:00 1.1 -5.2 -4.0 NO 31.5 -- 53.7 69 850(0.0/3h) -- -- -- --
01:00 1.5 -4.7 -4.3 NNO 31.5 -- 48.2 65 850(-0.1/3h) -- -- -- --
00:00 1.4 -4.4 -4.0 NO 27.8 -- 51.9 67 850(-0.3/3h) -- -- -- --

1 Coordinated Universal Time. Actuellement il est 02:00 locale et 00:00 UTC.

2 Le vent souffle depuis la direction indiquée vers la direction oposée.

3 Les rafales max. sont disponible 40 min après l'heure du relevé.

4 Pour les stations d'altitude (plus de 600m) le géopotentiel du niveau le plus proche de la pression obligatoire est indiqué.

5 Les stations disposant d'un diffuseur peuvent indiquer "trace". Cela signifie que des précipitations ont touchés le sol mais que la quantité est inférieure à 0.1 mm.

Copyright

Les données affichées sur cette page sont la propriété exclusive de Météo Suisse.

Récapitulatif de la journée
Température [°C] Vent [km/h] Ensoleillement4 [h] Precipitations totale5 [mm] Pression [Hpa]
Min1 Max.2 Moy.3 Max. Min Max.
0.7 6.7 0 53.7 10 h 42 min 0 850.0 850.0

1 Température minimale relevée entre 18:00 UTC la veille et 18:00 UTC le jour donné.

2 Température maximale relevée entre 06:00 UTC le jour donné et 06:00 UTC le lendemain.

3 Vent moyen de la journée basé sur les relevés horaires.

4 Ensoleillement en heures relevé entre 06:00 UTC la veille et 06:00 UTC le jour donné.

5 Précipitations totales tombées entre 06:00 UTC la jour donné et 06:00 UTC le lendemain.

Graphiques horaires